aviador You're here:

KDNL Decoded Metar

AUGUSTA/DANIEL in GA, USA
Report Time2018-02-22 05:53:00
UTC Time2018-02-22 06:49:20
Flight Rules mvfr MVFR
Wind160° at 05 kt
W.Decomp.*RWY 11: 2.9 kt HW 4.0 kt RCW
RWY 23: 2.0 kt HW 4.6 kt LCW
W.Rank160° ranks 26
Current wind is below 160° avg. (5.5)
Visibility9999 m
Phenomena:N/A
Clouds:Overcast 011 Hf
Expected CloudBase > 800 ft AGL from Temp-Dew spread
Ceiling1,100 ft
Temp21°C (ISA +7)
Dew Point19°C (88% RH)
QNH1030 hPa
Density Alt948 ft
Elevation427 ft
Report Wrong Elevation
Raw Report
METAR KDNL 220553Z AUTO 16005KT 10SM OVC011 21/19 A3042 RMK AO2 SLP295
T02110189 10261 20206 51004=

Extra information for KDNL:More info

Metar Taf Metar & Taf Last 4 Metars F.Rules Stats Wind Profile Meteogram Temp Stats Airport Information Weather charts Add Link Nearby VenuesMetar ALERT Operation Metar Decoded Social comments

AIRNAV info for KDNL